sensor_id;sensor_type;location;lat;lon;timestamp;P1;durP1;ratioP1;P2;durP2;ratioP2
41829;SDS011;38614;43.472;23.936;2023-05-10T00:02:08;5.13;;;3.95;;
41829;SDS011;38614;43.472;23.936;2023-05-10T00:04:56;5.70;;;3.50;;
41829;SDS011;38614;43.472;23.936;2023-05-10T00:07:43;11.30;;;3.53;;
41829;SDS011;38614;43.472;23.936;2023-05-10T00:10:33;5.65;;;3.35;;
41829;SDS011;38614;43.472;23.936;2023-05-10T00:13:21;10.60;;;4.07;;
41829;SDS011;38614;43.472;23.936;2023-05-10T00:16:09;8.40;;;5.32;;
41829;SDS011;38614;43.472;23.936;2023-05-10T00:19:00;6.25;;;3.60;;
41829;SDS011;38614;43.472;23.936;2023-05-10T00:21:48;7.38;;;4.45;;
41829;SDS011;38614;43.472;23.936;2023-05-10T00:24:36;8.35;;;4.30;;
41829;SDS011;38614;43.472;23.936;2023-05-10T00:27:24;4.00;;;3.60;;
41829;SDS011;38614;43.472;23.936;2023-05-10T00:30:12;8.07;;;5.30;;
41829;SDS011;38614;43.472;23.936;2023-05-10T00:33:00;6.47;;;4.88;;
41829;SDS011;38614;43.472;23.936;2023-05-10T00:36:13;10.02;;;5.03;;
41829;SDS011;38614;43.472;23.936;2023-05-10T00:38:57;12.75;;;5.18;;
41829;SDS011;38614;43.472;23.936;2023-05-10T00:41:44;8.05;;;4.80;;
41829;SDS011;38614;43.472;23.936;2023-05-10T00:44:32;11.95;;;4.72;;
41829;SDS011;38614;43.472;23.936;2023-05-10T00:47:20;8.50;;;4.57;;
41829;SDS011;38614;43.472;23.936;2023-05-10T00:50:08;7.18;;;4.55;;
41829;SDS011;38614;43.472;23.936;2023-05-10T00:52:57;6.55;;;4.50;;
41829;SDS011;38614;43.472;23.936;2023-05-10T00:55:46;8.98;;;4.50;;
41829;SDS011;38614;43.472;23.936;2023-05-10T00:58:34;6.75;;;4.22;;
41829;SDS011;38614;43.472;23.936;2023-05-10T01:01:22;6.55;;;5.43;;
41829;SDS011;38614;43.472;23.936;2023-05-10T01:04:11;11.70;;;6.00;;
41829;SDS011;38614;43.472;23.936;2023-05-10T01:07:01;8.18;;;5.22;;
41829;SDS011;38614;43.472;23.936;2023-05-10T01:09:49;7.70;;;5.18;;
41829;SDS011;38614;43.472;23.936;2023-05-10T01:12:40;13.25;;;5.93;;
41829;SDS011;38614;43.472;23.936;2023-05-10T01:15:30;4.63;;;4.07;;
41829;SDS011;38614;43.472;23.936;2023-05-10T01:18:23;13.85;;;5.18;;
41829;SDS011;38614;43.472;23.936;2023-05-10T01:21:14;5.78;;;4.43;;
41829;SDS011;38614;43.472;23.936;2023-05-10T01:30:38;10.48;;;5.68;;
41829;SDS011;38614;43.472;23.936;2023-05-10T01:34:01;8.65;;;5.22;;
41829;SDS011;38614;43.472;23.936;2023-05-10T01:36:58;11.82;;;6.45;;
41829;SDS011;38614;43.472;23.936;2023-05-10T01:40:08;6.97;;;4.68;;
41829;SDS011;38614;43.472;23.936;2023-05-10T01:43:04;8.93;;;5.10;;
41829;SDS011;38614;43.472;23.936;2023-05-10T01:48:52;7.00;;;5.68;;
41829;SDS011;38614;43.472;23.936;2023-05-10T01:51:47;8.05;;;5.63;;
41829;SDS011;38614;43.472;23.936;2023-05-10T01:54:38;9.60;;;6.07;;
41829;SDS011;38614;43.472;23.936;2023-05-10T01:57:35;10.25;;;6.68;;
41829;SDS011;38614;43.472;23.936;2023-05-10T02:00:26;8.18;;;5.97;;
41829;SDS011;38614;43.472;23.936;2023-05-10T02:03:16;11.18;;;6.72;;
41829;SDS011;38614;43.472;23.936;2023-05-10T02:06:08;15.68;;;6.07;;
41829;SDS011;38614;43.472;23.936;2023-05-10T02:09:00;7.88;;;6.22;;
41829;SDS011;38614;43.472;23.936;2023-05-10T02:11:49;12.27;;;7.18;;
41829;SDS011;38614;43.472;23.936;2023-05-10T02:14:37;9.32;;;6.20;;
41829;SDS011;38614;43.472;23.936;2023-05-10T02:17:28;12.10;;;6.35;;
41829;SDS011;38614;43.472;23.936;2023-05-10T02:20:20;16.67;;;6.38;;
41829;SDS011;38614;43.472;23.936;2023-05-10T02:23:09;19.08;;;6.38;;
41829;SDS011;38614;43.472;23.936;2023-05-10T02:25:57;8.98;;;6.53;;
41829;SDS011;38614;43.472;23.936;2023-05-10T02:28:47;7.90;;;5.82;;
41829;SDS011;38614;43.472;23.936;2023-05-10T02:31:37;11.60;;;7.22;;
41829;SDS011;38614;43.472;23.936;2023-05-10T02:34:26;10.55;;;7.20;;
41829;SDS011;38614;43.472;23.936;2023-05-10T02:37:14;10.38;;;7.07;;
41829;SDS011;38614;43.472;23.936;2023-05-10T02:40:05;9.35;;;6.35;;
41829;SDS011;38614;43.472;23.936;2023-05-10T02:42:54;15.25;;;7.32;;
41829;SDS011;38614;43.472;23.936;2023-05-10T02:45:44;12.18;;;7.47;;
41829;SDS011;38614;43.472;23.936;2023-05-10T02:48:35;11.90;;;7.63;;
41829;SDS011;38614;43.472;23.936;2023-05-10T02:51:44;10.43;;;6.32;;
41829;SDS011;38614;43.472;23.936;2023-05-10T02:54:50;13.55;;;7.40;;
41829;SDS011;38614;43.472;23.936;2023-05-10T02:57:41;10.70;;;7.07;;
41829;SDS011;38614;43.472;23.936;2023-05-10T03:00:33;10.45;;;6.90;;
41829;SDS011;38614;43.472;23.936;2023-05-10T03:03:21;10.18;;;6.63;;
41829;SDS011;38614;43.472;23.936;2023-05-10T03:06:10;11.70;;;7.00;;
41829;SDS011;38614;43.472;23.936;2023-05-10T03:08:58;9.15;;;6.72;;
41829;SDS011;38614;43.472;23.936;2023-05-10T03:17:47;12.07;;;7.57;;
41829;SDS011;38614;43.472;23.936;2023-05-10T03:20:57;11.43;;;6.40;;
41829;SDS011;38614;43.472;23.936;2023-05-10T03:23:51;10.82;;;6.72;;
41829;SDS011;38614;43.472;23.936;2023-05-10T03:26:47;16.77;;;7.25;;
41829;SDS011;38614;43.472;23.936;2023-05-10T03:29:37;11.65;;;7.50;;
41829;SDS011;38614;43.472;23.936;2023-05-10T03:32:26;11.00;;;6.90;;
41829;SDS011;38614;43.472;23.936;2023-05-10T03:35:21;10.88;;;8.23;;
41829;SDS011;38614;43.472;23.936;2023-05-10T03:38:09;17.25;;;8.20;;
41829;SDS011;38614;43.472;23.936;2023-05-10T03:40:57;10.23;;;7.50;;
41829;SDS011;38614;43.472;23.936;2023-05-10T03:43:45;12.02;;;7.63;;
41829;SDS011;38614;43.472;23.936;2023-05-10T03:46:32;16.02;;;7.82;;
41829;SDS011;38614;43.472;23.936;2023-05-10T03:49:22;11.88;;;7.85;;
41829;SDS011;38614;43.472;23.936;2023-05-10T03:52:11;10.57;;;7.55;;
41829;SDS011;38614;43.472;23.936;2023-05-10T03:54:59;17.27;;;8.27;;
41829;SDS011;38614;43.472;23.936;2023-05-10T03:57:47;10.82;;;7.55;;
41829;SDS011;38614;43.472;23.936;2023-05-10T04:00:36;13.38;;;8.15;;
41829;SDS011;38614;43.472;23.936;2023-05-10T04:03:25;14.77;;;7.40;;
41829;SDS011;38614;43.472;23.936;2023-05-10T04:06:13;17.52;;;7.57;;
41829;SDS011;38614;43.472;23.936;2023-05-10T04:09:01;16.45;;;7.65;;
41829;SDS011;38614;43.472;23.936;2023-05-10T04:11:51;9.65;;;7.20;;
41829;SDS011;38614;43.472;23.936;2023-05-10T04:14:39;11.38;;;7.63;;
41829;SDS011;38614;43.472;23.936;2023-05-10T04:17:26;8.95;;;6.40;;
41829;SDS011;38614;43.472;23.936;2023-05-10T04:20:14;11.90;;;7.40;;
41829;SDS011;38614;43.472;23.936;2023-05-10T04:23:02;11.90;;;8.48;;
41829;SDS011;38614;43.472;23.936;2023-05-10T04:25:50;11.35;;;6.40;;
41829;SDS011;38614;43.472;23.936;2023-05-10T04:28:38;10.35;;;5.25;;
41829;SDS011;38614;43.472;23.936;2023-05-10T04:31:26;16.35;;;7.00;;
41829;SDS011;38614;43.472;23.936;2023-05-10T04:34:15;8.25;;;5.35;;
41829;SDS011;38614;43.472;23.936;2023-05-10T04:37:02;8.18;;;5.65;;
41829;SDS011;38614;43.472;23.936;2023-05-10T04:39:50;10.55;;;6.45;;
41829;SDS011;38614;43.472;23.936;2023-05-10T04:42:40;15.25;;;6.10;;
41829;SDS011;38614;43.472;23.936;2023-05-10T04:45:28;10.77;;;5.68;;
41829;SDS011;38614;43.472;23.936;2023-05-10T04:48:16;6.15;;;4.38;;
41829;SDS011;38614;43.472;23.936;2023-05-10T04:51:03;11.60;;;5.85;;
41829;SDS011;38614;43.472;23.936;2023-05-10T04:53:51;7.57;;;4.57;;
41829;SDS011;38614;43.472;23.936;2023-05-10T04:56:52;17.70;;;5.93;;
41829;SDS011;38614;43.472;23.936;2023-05-10T04:59:40;8.90;;;5.78;;
41829;SDS011;38614;43.472;23.936;2023-05-10T05:02:27;6.90;;;5.50;;
41829;SDS011;38614;43.472;23.936;2023-05-10T05:05:15;5.65;;;4.97;;
41829;SDS011;38614;43.472;23.936;2023-05-10T05:08:03;8.82;;;5.55;;
41829;SDS011;38614;43.472;23.936;2023-05-10T05:10:51;6.80;;;5.05;;
41829;SDS011;38614;43.472;23.936;2023-05-10T05:13:38;6.97;;;4.57;;
41829;SDS011;38614;43.472;23.936;2023-05-10T05:16:26;7.15;;;4.88;;
41829;SDS011;38614;43.472;23.936;2023-05-10T05:19:14;7.05;;;4.03;;
41829;SDS011;38614;43.472;23.936;2023-05-10T05:22:01;6.13;;;4.30;;
41829;SDS011;38614;43.472;23.936;2023-05-10T05:24:49;5.70;;;4.22;;
41829;SDS011;38614;43.472;23.936;2023-05-10T05:27:36;11.45;;;4.10;;
41829;SDS011;38614;43.472;23.936;2023-05-10T05:30:24;13.57;;;3.97;;
41829;SDS011;38614;43.472;23.936;2023-05-10T05:33:15;10.48;;;4.00;;
41829;SDS011;38614;43.472;23.936;2023-05-10T05:36:03;6.85;;;3.85;;
41829;SDS011;38614;43.472;23.936;2023-05-10T05:38:52;12.07;;;3.55;;
41829;SDS011;38614;43.472;23.936;2023-05-10T05:41:40;5.72;;;3.33;;
41829;SDS011;38614;43.472;23.936;2023-05-10T05:44:27;3.83;;;2.97;;
41829;SDS011;38614;43.472;23.936;2023-05-10T05:47:15;9.23;;;3.10;;
41829;SDS011;38614;43.472;23.936;2023-05-10T05:50:03;6.93;;;3.03;;
41829;SDS011;38614;43.472;23.936;2023-05-10T05:52:52;3.58;;;2.70;;
41829;SDS011;38614;43.472;23.936;2023-05-10T05:55:39;3.60;;;2.67;;
41829;SDS011;38614;43.472;23.936;2023-05-10T05:58:27;4.43;;;3.15;;
41829;SDS011;38614;43.472;23.936;2023-05-10T06:01:15;5.20;;;2.75;;
41829;SDS011;38614;43.472;23.936;2023-05-10T06:04:02;5.85;;;2.67;;
41829;SDS011;38614;43.472;23.936;2023-05-10T06:06:50;4.40;;;2.72;;
41829;SDS011;38614;43.472;23.936;2023-05-10T06:09:38;7.50;;;3.33;;
41829;SDS011;38614;43.472;23.936;2023-05-10T06:12:26;5.72;;;2.30;;
41829;SDS011;38614;43.472;23.936;2023-05-10T06:15:13;5.85;;;3.25;;
41829;SDS011;38614;43.472;23.936;2023-05-10T06:18:01;9.35;;;2.35;;
41829;SDS011;38614;43.472;23.936;2023-05-10T06:20:49;2.67;;;2.47;;
41829;SDS011;38614;43.472;23.936;2023-05-10T06:23:37;3.95;;;2.70;;
41829;SDS011;38614;43.472;23.936;2023-05-10T06:26:25;3.30;;;2.20;;
41829;SDS011;38614;43.472;23.936;2023-05-10T06:29:12;4.00;;;2.80;;
41829;SDS011;38614;43.472;23.936;2023-05-10T06:32:02;6.20;;;2.13;;
41829;SDS011;38614;43.472;23.936;2023-05-10T06:34:50;5.55;;;2.25;;
41829;SDS011;38614;43.472;23.936;2023-05-10T06:37:38;14.77;;;1.88;;
41829;SDS011;38614;43.472;23.936;2023-05-10T06:40:25;7.25;;;3.70;;
41829;SDS011;38614;43.472;23.936;2023-05-10T06:43:13;1.88;;;1.42;;
41829;SDS011;38614;43.472;23.936;2023-05-10T06:46:01;3.28;;;1.48;;
41829;SDS011;38614;43.472;23.936;2023-05-10T06:48:49;4.15;;;1.67;;
41829;SDS011;38614;43.472;23.936;2023-05-10T06:51:37;2.58;;;1.70;;
41829;SDS011;38614;43.472;23.936;2023-05-10T06:54:24;3.22;;;2.03;;
41829;SDS011;38614;43.472;23.936;2023-05-10T06:57:12;3.42;;;1.92;;
41829;SDS011;38614;43.472;23.936;2023-05-10T07:00:17;3.10;;;2.10;;
41829;SDS011;38614;43.472;23.936;2023-05-10T07:03:07;6.13;;;2.33;;
41829;SDS011;38614;43.472;23.936;2023-05-10T07:06:00;3.13;;;1.63;;
41829;SDS011;38614;43.472;23.936;2023-05-10T07:08:50;10.93;;;2.05;;
41829;SDS011;38614;43.472;23.936;2023-05-10T07:11:41;5.20;;;1.60;;
41829;SDS011;38614;43.472;23.936;2023-05-10T07:14:30;3.25;;;1.70;;
41829;SDS011;38614;43.472;23.936;2023-05-10T07:17:18;5.10;;;2.25;;
41829;SDS011;38614;43.472;23.936;2023-05-10T07:20:06;3.15;;;1.63;;
41829;SDS011;38614;43.472;23.936;2023-05-10T07:22:54;1.85;;;1.17;;
41829;SDS011;38614;43.472;23.936;2023-05-10T07:25:41;7.50;;;1.40;;
41829;SDS011;38614;43.472;23.936;2023-05-10T07:28:32;4.40;;;1.75;;
41829;SDS011;38614;43.472;23.936;2023-05-10T07:31:20;1.02;;;1.02;;
41829;SDS011;38614;43.472;23.936;2023-05-10T07:34:07;1.85;;;1.25;;
41829;SDS011;38614;43.472;23.936;2023-05-10T07:36:58;2.03;;;1.05;;
41829;SDS011;38614;43.472;23.936;2023-05-10T07:39:49;4.63;;;1.48;;
41829;SDS011;38614;43.472;23.936;2023-05-10T07:42:37;2.58;;;1.35;;
41829;SDS011;38614;43.472;23.936;2023-05-10T07:45:40;2.58;;;1.83;;
41829;SDS011;38614;43.472;23.936;2023-05-10T07:48:30;2.30;;;1.27;;
41829;SDS011;38614;43.472;23.936;2023-05-10T07:51:18;2.65;;;1.27;;
41829;SDS011;38614;43.472;23.936;2023-05-10T07:54:06;8.55;;;1.20;;
41829;SDS011;38614;43.472;23.936;2023-05-10T07:56:54;3.70;;;1.40;;
41829;SDS011;38614;43.472;23.936;2023-05-10T07:59:42;2.80;;;1.27;;
41829;SDS011;38614;43.472;23.936;2023-05-10T08:02:31;2.25;;;1.00;;
41829;SDS011;38614;43.472;23.936;2023-05-10T08:05:25;5.38;;;1.27;;
41829;SDS011;38614;43.472;23.936;2023-05-10T08:08:31;8.93;;;1.00;;
41829;SDS011;38614;43.472;23.936;2023-05-10T08:11:19;4.57;;;0.82;;
41829;SDS011;38614;43.472;23.936;2023-05-10T08:14:08;3.08;;;1.20;;
41829;SDS011;38614;43.472;23.936;2023-05-10T08:16:55;2.83;;;1.45;;
41829;SDS011;38614;43.472;23.936;2023-05-10T08:19:43;8.48;;;0.77;;
41829;SDS011;38614;43.472;23.936;2023-05-10T08:22:31;2.72;;;0.63;;
41829;SDS011;38614;43.472;23.936;2023-05-10T08:25:18;1.10;;;0.75;;
41829;SDS011;38614;43.472;23.936;2023-05-10T08:28:08;1.35;;;0.65;;
41829;SDS011;38614;43.472;23.936;2023-05-10T08:30:57;1.52;;;0.73;;
41829;SDS011;38614;43.472;23.936;2023-05-10T08:33:45;1.13;;;0.70;;
41829;SDS011;38614;43.472;23.936;2023-05-10T08:36:33;1.05;;;0.75;;
41829;SDS011;38614;43.472;23.936;2023-05-10T08:39:20;3.53;;;0.40;;
41829;SDS011;38614;43.472;23.936;2023-05-10T08:42:16;3.60;;;0.90;;
41829;SDS011;38614;43.472;23.936;2023-05-10T08:45:10;1.48;;;1.17;;
41829;SDS011;38614;43.472;23.936;2023-05-10T08:48:00;9.10;;;1.13;;
41829;SDS011;38614;43.472;23.936;2023-05-10T08:50:52;3.75;;;0.82;;
41829;SDS011;38614;43.472;23.936;2023-05-10T08:53:41;2.67;;;0.40;;
41829;SDS011;38614;43.472;23.936;2023-05-10T08:56:29;1.88;;;0.55;;
41829;SDS011;38614;43.472;23.936;2023-05-10T08:59:17;1.60;;;0.85;;
41829;SDS011;38614;43.472;23.936;2023-05-10T09:02:05;1.92;;;0.85;;
41829;SDS011;38614;43.472;23.936;2023-05-10T09:04:53;1.17;;;0.60;;
41829;SDS011;38614;43.472;23.936;2023-05-10T09:07:41;0.90;;;0.40;;
41829;SDS011;38614;43.472;23.936;2023-05-10T09:10:29;3.10;;;0.45;;
41829;SDS011;38614;43.472;23.936;2023-05-10T09:13:18;1.67;;;0.57;;
41829;SDS011;38614;43.472;23.936;2023-05-10T09:16:06;1.02;;;0.75;;
41829;SDS011;38614;43.472;23.936;2023-05-10T09:19:07;3.13;;;0.57;;
41829;SDS011;38614;43.472;23.936;2023-05-10T09:21:55;1.95;;;0.82;;
41829;SDS011;38614;43.472;23.936;2023-05-10T09:24:43;0.90;;;0.80;;
41829;SDS011;38614;43.472;23.936;2023-05-10T09:27:32;3.30;;;0.55;;
41829;SDS011;38614;43.472;23.936;2023-05-10T09:36:06;6.43;;;0.30;;
41829;SDS011;38614;43.472;23.936;2023-05-10T09:38:55;1.02;;;0.65;;
41829;SDS011;38614;43.472;23.936;2023-05-10T09:41:43;1.33;;;0.73;;
41829;SDS011;38614;43.472;23.936;2023-05-10T09:44:34;7.15;;;0.85;;
41829;SDS011;38614;43.472;23.936;2023-05-10T09:47:23;1.73;;;0.63;;
41829;SDS011;38614;43.472;23.936;2023-05-10T09:50:12;7.55;;;0.70;;
41829;SDS011;38614;43.472;23.936;2023-05-10T09:53:01;1.67;;;0.20;;
41829;SDS011;38614;43.472;23.936;2023-05-10T09:55:50;1.70;;;0.60;;
41829;SDS011;38614;43.472;23.936;2023-05-10T09:58:38;1.15;;;0.60;;
41829;SDS011;38614;43.472;23.936;2023-05-10T10:01:26;8.75;;;0.93;;
41829;SDS011;38614;43.472;23.936;2023-05-10T10:04:14;2.58;;;0.47;;
41829;SDS011;38614;43.472;23.936;2023-05-10T10:07:03;3.10;;;0.47;;
41829;SDS011;38614;43.472;23.936;2023-05-10T10:09:52;0.95;;;0.22;;
41829;SDS011;38614;43.472;23.936;2023-05-10T10:12:40;7.93;;;0.60;;
41829;SDS011;38614;43.472;23.936;2023-05-10T10:15:28;3.80;;;0.95;;
41829;SDS011;38614;43.472;23.936;2023-05-10T10:18:16;3.72;;;0.32;;
41829;SDS011;38614;43.472;23.936;2023-05-10T10:21:07;1.10;;;0.45;;
41829;SDS011;38614;43.472;23.936;2023-05-10T10:23:55;0.95;;;0.47;;
41829;SDS011;38614;43.472;23.936;2023-05-10T10:26:43;2.40;;;0.73;;
41829;SDS011;38614;43.472;23.936;2023-05-10T10:36:15;2.95;;;0.38;;
41829;SDS011;38614;43.472;23.936;2023-05-10T10:39:07;1.48;;;0.50;;
41829;SDS011;38614;43.472;23.936;2023-05-10T10:41:57;4.47;;;0.55;;
41829;SDS011;38614;43.472;23.936;2023-05-10T10:44:46;4.97;;;0.82;;
41829;SDS011;38614;43.472;23.936;2023-05-10T10:47:33;1.50;;;0.32;;
41829;SDS011;38614;43.472;23.936;2023-05-10T10:50:22;0.22;;;0.13;;
41829;SDS011;38614;43.472;23.936;2023-05-10T10:53:12;0.47;;;0.20;;
41829;SDS011;38614;43.472;23.936;2023-05-10T10:56:10;1.50;;;0.38;;
41829;SDS011;38614;43.472;23.936;2023-05-10T10:59:00;2.05;;;0.20;;
41829;SDS011;38614;43.472;23.936;2023-05-10T11:01:51;1.65;;;0.30;;
41829;SDS011;38614;43.472;23.936;2023-05-10T11:04:43;2.67;;;0.35;;
41829;SDS011;38614;43.472;23.936;2023-05-10T11:07:33;0.40;;;0.20;;
41829;SDS011;38614;43.472;23.936;2023-05-10T11:10:25;1.50;;;0.20;;
41829;SDS011;38614;43.472;23.936;2023-05-10T11:13:14;4.78;;;0.40;;
41829;SDS011;38614;43.472;23.936;2023-05-10T11:16:17;0.50;;;0.30;;
41829;SDS011;38614;43.472;23.936;2023-05-10T11:19:10;1.50;;;0.30;;
41829;SDS011;38614;43.472;23.936;2023-05-10T11:25:00;1.33;;;0.10;;
41829;SDS011;38614;43.472;23.936;2023-05-10T11:27:48;0.70;;;0.40;;
41829;SDS011;38614;43.472;23.936;2023-05-10T11:30:36;0.45;;;0.20;;
41829;SDS011;38614;43.472;23.936;2023-05-10T11:33:26;1.08;;;0.20;;
41829;SDS011;38614;43.472;23.936;2023-05-10T11:36:15;0.82;;;0.17;;
41829;SDS011;38614;43.472;23.936;2023-05-10T11:39:03;1.92;;;1.02;;
41829;SDS011;38614;43.472;23.936;2023-05-10T11:41:51;0.40;;;0.20;;
41829;SDS011;38614;43.472;23.936;2023-05-10T11:44:39;0.82;;;0.30;;
41829;SDS011;38614;43.472;23.936;2023-05-10T11:47:28;2.13;;;0.10;;
41829;SDS011;38614;43.472;23.936;2023-05-10T11:50:16;3.33;;;0.32;;
41829;SDS011;38614;43.472;23.936;2023-05-10T11:53:05;0.30;;;0.30;;
41829;SDS011;38614;43.472;23.936;2023-05-10T11:55:53;0.35;;;0.10;;
41829;SDS011;38614;43.472;23.936;2023-05-10T11:58:40;0.40;;;0.20;;
41829;SDS011;38614;43.472;23.936;2023-05-10T12:01:28;2.28;;;0.10;;
41829;SDS011;38614;43.472;23.936;2023-05-10T12:04:16;0.98;;;0.55;;
41829;SDS011;38614;43.472;23.936;2023-05-10T12:07:04;3.60;;;0.20;;
41829;SDS011;38614;43.472;23.936;2023-05-10T12:13:02;2.40;;;0.35;;
41829;SDS011;38614;43.472;23.936;2023-05-10T12:15:50;1.75;;;0.30;;
41829;SDS011;38614;43.472;23.936;2023-05-10T12:18:38;0.47;;;0.30;;
41829;SDS011;38614;43.472;23.936;2023-05-10T12:21:28;1.48;;;0.30;;
41829;SDS011;38614;43.472;23.936;2023-05-10T12:24:17;0.35;;;0.10;;
41829;SDS011;38614;43.472;23.936;2023-05-10T12:27:07;0.85;;;0.10;;
41829;SDS011;38614;43.472;23.936;2023-05-10T12:29:55;0.40;;;0.28;;
41829;SDS011;38614;43.472;23.936;2023-05-10T12:32:46;8.13;;;0.37;;
41829;SDS011;38614;43.472;23.936;2023-05-10T12:35:43;3.85;;;0.38;;
41829;SDS011;38614;43.472;23.936;2023-05-10T12:38:33;4.45;;;0.20;;
41829;SDS011;38614;43.472;23.936;2023-05-10T12:41:22;3.10;;;0.38;;
41829;SDS011;38614;43.472;23.936;2023-05-10T12:44:12;3.50;;;0.30;;
41829;SDS011;38614;43.472;23.936;2023-05-10T12:46:59;4.53;;;0.40;;
41829;SDS011;38614;43.472;23.936;2023-05-10T12:49:47;3.42;;;0.50;;
41829;SDS011;38614;43.472;23.936;2023-05-10T12:52:34;1.90;;;0.38;;
41829;SDS011;38614;43.472;23.936;2023-05-10T12:55:22;0.85;;;0.47;;
41829;SDS011;38614;43.472;23.936;2023-05-10T12:58:10;10.32;;;0.60;;
41829;SDS011;38614;43.472;23.936;2023-05-10T13:01:06;2.03;;;0.82;;
41829;SDS011;38614;43.472;23.936;2023-05-10T13:03:55;0.80;;;0.28;;
41829;SDS011;38614;43.472;23.936;2023-05-10T13:06:43;2.47;;;0.65;;
41829;SDS011;38614;43.472;23.936;2023-05-10T13:09:30;0.68;;;0.40;;
41829;SDS011;38614;43.472;23.936;2023-05-10T13:12:18;1.05;;;0.68;;
41829;SDS011;38614;43.472;23.936;2023-05-10T13:15:06;2.58;;;0.38;;
41829;SDS011;38614;43.472;23.936;2023-05-10T13:17:54;2.50;;;0.98;;
41829;SDS011;38614;43.472;23.936;2023-05-10T13:20:42;6.03;;;2.13;;
41829;SDS011;38614;43.472;23.936;2023-05-10T13:23:31;6.40;;;1.00;;
41829;SDS011;38614;43.472;23.936;2023-05-10T13:26:19;3.25;;;1.40;;
41829;SDS011;38614;43.472;23.936;2023-05-10T13:29:07;6.63;;;1.00;;
41829;SDS011;38614;43.472;23.936;2023-05-10T13:31:55;0.88;;;0.70;;
41829;SDS011;38614;43.472;23.936;2023-05-10T13:34:42;3.33;;;0.50;;
41829;SDS011;38614;43.472;23.936;2023-05-10T13:37:30;1.25;;;0.30;;
41829;SDS011;38614;43.472;23.936;2023-05-10T13:40:19;0.88;;;0.52;;
41829;SDS011;38614;43.472;23.936;2023-05-10T13:43:07;5.68;;;0.30;;
41829;SDS011;38614;43.472;23.936;2023-05-10T13:45:54;2.60;;;0.57;;
41829;SDS011;38614;43.472;23.936;2023-05-10T13:48:42;0.70;;;0.52;;
41829;SDS011;38614;43.472;23.936;2023-05-10T13:51:30;2.05;;;0.50;;
41829;SDS011;38614;43.472;23.936;2023-05-10T13:54:18;1.92;;;0.60;;
41829;SDS011;38614;43.472;23.936;2023-05-10T13:57:06;1.13;;;0.30;;
41829;SDS011;38614;43.472;23.936;2023-05-10T13:59:54;1.23;;;0.25;;
41829;SDS011;38614;43.472;23.936;2023-05-10T14:02:43;0.93;;;0.38;;
41829;SDS011;38614;43.472;23.936;2023-05-10T14:05:31;1.63;;;0.25;;
41829;SDS011;38614;43.472;23.936;2023-05-10T14:08:19;6.40;;;0.50;;
41829;SDS011;38614;43.472;23.936;2023-05-10T14:11:07;2.70;;;1.20;;
41829;SDS011;38614;43.472;23.936;2023-05-10T14:13:55;1.10;;;0.50;;
41829;SDS011;38614;43.472;23.936;2023-05-10T14:16:44;4.28;;;0.70;;
41829;SDS011;38614;43.472;23.936;2023-05-10T14:19:32;0.50;;;0.38;;
41829;SDS011;38614;43.472;23.936;2023-05-10T14:22:23;2.67;;;0.93;;
41829;SDS011;38614;43.472;23.936;2023-05-10T14:25:11;1.05;;;0.30;;
41829;SDS011;38614;43.472;23.936;2023-05-10T14:27:59;1.90;;;0.30;;
41829;SDS011;38614;43.472;23.936;2023-05-10T14:30:47;2.28;;;0.50;;
41829;SDS011;38614;43.472;23.936;2023-05-10T14:33:36;3.30;;;0.55;;
41829;SDS011;38614;43.472;23.936;2023-05-10T14:36:36;3.85;;;0.43;;
41829;SDS011;38614;43.472;23.936;2023-05-10T14:39:39;10.25;;;0.68;;
41829;SDS011;38614;43.472;23.936;2023-05-10T14:43:33;1.42;;;0.82;;
41829;SDS011;38614;43.472;23.936;2023-05-10T14:46:24;0.93;;;0.30;;
41829;SDS011;38614;43.472;23.936;2023-05-10T14:49:12;2.30;;;0.60;;
41829;SDS011;38614;43.472;23.936;2023-05-10T14:56:09;0.85;;;0.63;;
41829;SDS011;38614;43.472;23.936;2023-05-10T14:58:56;2.60;;;0.63;;
41829;SDS011;38614;43.472;23.936;2023-05-10T15:01:44;2.95;;;0.55;;
41829;SDS011;38614;43.472;23.936;2023-05-10T15:04:37;0.95;;;0.28;;
41829;SDS011;38614;43.472;23.936;2023-05-10T15:07:25;4.47;;;0.30;;
41829;SDS011;38614;43.472;23.936;2023-05-10T15:10:13;2.70;;;0.35;;
41829;SDS011;38614;43.472;23.936;2023-05-10T15:13:03;1.52;;;0.32;;
41829;SDS011;38614;43.472;23.936;2023-05-10T15:15:53;11.85;;;0.75;;
41829;SDS011;38614;43.472;23.936;2023-05-10T15:18:43;7.43;;;0.30;;
41829;SDS011;38614;43.472;23.936;2023-05-10T15:21:31;3.53;;;0.38;;
41829;SDS011;38614;43.472;23.936;2023-05-10T15:24:25;1.95;;;0.60;;
41829;SDS011;38614;43.472;23.936;2023-05-10T15:27:13;0.50;;;0.40;;
41829;SDS011;38614;43.472;23.936;2023-05-10T15:30:01;2.88;;;0.40;;
41829;SDS011;38614;43.472;23.936;2023-05-10T15:32:49;0.40;;;0.20;;
41829;SDS011;38614;43.472;23.936;2023-05-10T15:35:37;5.38;;;0.50;;
41829;SDS011;38614;43.472;23.936;2023-05-10T15:38:26;2.92;;;0.45;;
41829;SDS011;38614;43.472;23.936;2023-05-10T15:41:14;3.22;;;0.10;;
41829;SDS011;38614;43.472;23.936;2023-05-10T15:44:03;1.13;;;0.32;;
41829;SDS011;38614;43.472;23.936;2023-05-10T15:49:41;1.48;;;0.40;;
41829;SDS011;38614;43.472;23.936;2023-05-10T15:52:29;0.50;;;0.32;;
41829;SDS011;38614;43.472;23.936;2023-05-10T15:55:16;0.40;;;0.10;;
41829;SDS011;38614;43.472;23.936;2023-05-10T15:58:05;3.17;;;0.20;;
41829;SDS011;38614;43.472;23.936;2023-05-10T16:00:53;5.15;;;0.60;;
41829;SDS011;38614;43.472;23.936;2023-05-10T16:03:41;1.77;;;0.25;;
41829;SDS011;38614;43.472;23.936;2023-05-10T16:06:31;0.68;;;0.22;;
41829;SDS011;38614;43.472;23.936;2023-05-10T16:09:20;0.85;;;0.25;;
41829;SDS011;38614;43.472;23.936;2023-05-10T16:12:08;0.85;;;0.50;;
41829;SDS011;38614;43.472;23.936;2023-05-10T16:14:56;2.80;;;0.60;;
41829;SDS011;38614;43.472;23.936;2023-05-10T16:17:43;0.52;;;0.30;;
41829;SDS011;38614;43.472;23.936;2023-05-10T16:20:31;0.40;;;0.20;;
41829;SDS011;38614;43.472;23.936;2023-05-10T16:23:22;5.47;;;0.50;;
41829;SDS011;38614;43.472;23.936;2023-05-10T16:26:10;4.93;;;0.35;;
41829;SDS011;38614;43.472;23.936;2023-05-10T16:28:58;4.78;;;0.55;;
41829;SDS011;38614;43.472;23.936;2023-05-10T16:31:46;1.67;;;0.32;;
41829;SDS011;38614;43.472;23.936;2023-05-10T16:34:34;1.40;;;0.63;;
41829;SDS011;38614;43.472;23.936;2023-05-10T16:37:22;4.20;;;0.25;;
41829;SDS011;38614;43.472;23.936;2023-05-10T16:40:11;5.22;;;0.40;;
41829;SDS011;38614;43.472;23.936;2023-05-10T16:42:59;0.60;;;0.20;;
41829;SDS011;38614;43.472;23.936;2023-05-10T16:45:48;1.98;;;0.32;;
41829;SDS011;38614;43.472;23.936;2023-05-10T16:48:36;0.75;;;0.32;;
41829;SDS011;38614;43.472;23.936;2023-05-10T16:51:24;0.70;;;0.20;;
41829;SDS011;38614;43.472;23.936;2023-05-10T16:54:12;5.47;;;0.20;;
41829;SDS011;38614;43.472;23.936;2023-05-10T16:57:00;1.23;;;0.35;;
41829;SDS011;38614;43.472;23.936;2023-05-10T16:59:48;5.47;;;0.32;;
41829;SDS011;38614;43.472;23.936;2023-05-10T17:02:36;1.75;;;0.25;;
41829;SDS011;38614;43.472;23.936;2023-05-10T17:05:24;1.98;;;0.93;;
41829;SDS011;38614;43.472;23.936;2023-05-10T17:08:15;3.33;;;0.20;;
41829;SDS011;38614;43.472;23.936;2023-05-10T17:11:03;0.45;;;0.10;;
41829;SDS011;38614;43.472;23.936;2023-05-10T17:13:54;0.52;;;0.35;;
41829;SDS011;38614;43.472;23.936;2023-05-10T17:16:42;2.33;;;0.68;;
41829;SDS011;38614;43.472;23.936;2023-05-10T17:19:34;2.08;;;0.40;;
41829;SDS011;38614;43.472;23.936;2023-05-10T17:22:23;3.17;;;0.57;;
41829;SDS011;38614;43.472;23.936;2023-05-10T17:25:11;1.08;;;0.57;;